createdAt,value
2018-03-17T00:00:11.025Z,87.07
2018-03-17T00:02:39.775Z,88.09
2018-03-17T00:05:08.154Z,87.83
2018-03-17T00:07:36.469Z,87.27
2018-03-17T00:10:04.825Z,88.07
2018-03-17T00:12:33.268Z,87.73
2018-03-17T00:15:01.573Z,88.03
2018-03-17T00:17:29.930Z,87.44
2018-03-17T00:19:58.259Z,88.11
2018-03-17T00:22:26.625Z,87.01
2018-03-17T00:24:55.734Z,87.28
2018-03-17T00:27:24.109Z,88.15
2018-03-17T00:29:52.446Z,88.29
2018-03-17T00:32:32.573Z,88.00
2018-03-17T00:35:00.976Z,88.04
2018-03-17T00:37:29.320Z,88.07
2018-03-17T00:40:02.023Z,87.22
2018-03-17T00:42:30.411Z,87.27
2018-03-17T00:44:58.768Z,87.26
2018-03-17T00:47:27.136Z,86.63
2018-03-17T00:49:56.724Z,87.15
2018-03-17T00:52:26.589Z,87.29
2018-03-17T00:54:54.972Z,86.58
2018-03-17T00:57:23.320Z,86.99
2018-03-17T00:59:52.072Z,86.71
2018-03-17T01:02:20.429Z,84.68
2018-03-17T01:04:49.540Z,86.01
2018-03-17T01:07:17.964Z,86.43
2018-03-17T01:09:46.328Z,86.43
2018-03-17T01:12:14.676Z,85.02
2018-03-17T01:14:43.023Z,84.34
2018-03-17T01:17:11.349Z,84.54
2018-03-17T01:19:39.665Z,83.85
2018-03-17T01:22:08.018Z,84.64
2018-03-17T01:24:36.388Z,84.20
2018-03-17T01:27:05.528Z,84.05
2018-03-17T01:29:33.891Z,84.74
2018-03-17T01:32:02.260Z,84.20
2018-03-17T01:34:30.608Z,84.27
2018-03-17T01:36:58.960Z,84.82
2018-03-17T01:39:28.135Z,83.98
2018-03-17T01:41:56.456Z,84.54
2018-03-17T01:44:24.846Z,83.85
2018-03-17T01:46:53.220Z,83.09
2018-03-17T01:49:22.183Z,83.89
2018-03-17T01:51:51.530Z,82.65
2018-03-17T01:54:31.556Z,83.50
2018-03-17T01:57:03.024Z,81.38
2018-03-17T01:59:31.399Z,82.51
2018-03-17T02:02:00.852Z,82.48
2018-03-17T02:04:29.222Z,82.28
2018-03-17T02:06:57.556Z,82.42
2018-03-17T02:09:25.978Z,81.72
2018-03-17T02:11:54.349Z,82.14
2018-03-17T02:14:22.685Z,80.65
2018-03-17T02:16:51.060Z,80.30
2018-03-17T02:19:19.424Z,81.32
2018-03-17T02:21:47.743Z,80.44
2018-03-17T02:24:16.157Z,80.18
2018-03-17T02:26:44.512Z,80.57
2018-03-17T02:29:12.867Z,80.11
2018-03-17T02:31:41.196Z,80.15
2018-03-17T02:34:10.328Z,79.71
2018-03-17T02:36:39.785Z,79.57
2018-03-17T02:39:08.100Z,78.91
2018-03-17T02:41:36.493Z,79.34
2018-03-17T02:44:04.930Z,79.54
2018-03-17T02:46:34.982Z,80.20
2018-03-17T02:49:03.444Z,80.67
2018-03-17T02:51:31.779Z,80.63
2018-03-17T02:54:00.163Z,80.80
2018-03-17T02:56:28.513Z,80.40
2018-03-17T02:58:56.904Z,80.90
2018-03-17T03:01:25.252Z,80.60
2018-03-17T03:03:53.588Z,81.08
2018-03-17T03:06:21.958Z,81.46
2018-03-17T03:08:50.341Z,81.82
2018-03-17T03:11:19.556Z,82.48
2018-03-17T03:13:48.682Z,82.47
2018-03-17T03:16:17.040Z,82.84
2018-03-17T03:18:45.411Z,82.43
2018-03-17T03:21:14.552Z,83.20
2018-03-17T03:23:42.928Z,83.53
2018-03-17T03:26:11.268Z,82.99
2018-03-17T03:28:39.617Z,83.80
2018-03-17T03:31:07.999Z,83.38
2018-03-17T03:33:37.124Z,83.73
2018-03-17T03:36:06.236Z,84.17
2018-03-17T03:38:34.616Z,83.85
2018-03-17T03:41:03.759Z,84.45
2018-03-17T03:43:32.115Z,84.03
2018-03-17T03:46:00.451Z,83.99
2018-03-17T03:48:29.592Z,84.07
2018-03-17T03:50:57.958Z,84.35
2018-03-17T03:53:26.296Z,84.44
2018-03-17T03:55:54.665Z,84.64
2018-03-17T03:58:23.783Z,84.60
2018-03-17T04:00:52.155Z,84.78
2018-03-17T04:03:20.911Z,84.12
2018-03-17T04:05:50.677Z,84.50
2018-03-17T04:08:19.035Z,84.49
2018-03-17T04:10:47.354Z,84.77
2018-03-17T04:13:15.728Z,85.05
2018-03-17T04:15:44.064Z,85.21
2018-03-17T04:18:12.432Z,84.36
2018-03-17T04:20:40.804Z,84.86
2018-03-17T04:23:09.919Z,84.98
2018-03-17T04:25:38.299Z,85.11
2018-03-17T04:28:07.361Z,84.75
2018-03-17T04:30:36.493Z,84.33
2018-03-17T04:33:04.850Z,84.84
2018-03-17T04:35:34.371Z,84.89
2018-03-17T04:38:02.763Z,84.84
2018-03-17T04:40:31.211Z,84.18
2018-03-17T04:43:00.388Z,84.49
2018-03-17T04:45:29.719Z,84.65
2018-03-17T04:47:58.106Z,85.34
2018-03-17T04:50:26.441Z,85.01
2018-03-17T04:52:54.807Z,84.50
2018-03-17T04:55:23.153Z,84.08
2018-03-17T04:57:51.544Z,84.33
2018-03-17T05:00:19.873Z,84.02
2018-03-17T05:02:49.002Z,84.01
2018-03-17T05:05:17.350Z,84.60
2018-03-17T05:07:46.442Z,84.32
2018-03-17T05:10:15.558Z,83.45
2018-03-17T05:12:44.633Z,82.86
2018-03-17T05:15:13.766Z,83.56
2018-03-17T05:17:42.912Z,83.52
2018-03-17T05:20:12.022Z,82.68
2018-03-17T05:22:40.368Z,83.83
2018-03-17T05:25:08.758Z,83.58
2018-03-17T05:27:37.097Z,83.11
2018-03-17T05:30:05.506Z,82.98
2018-03-17T05:32:33.994Z,83.42
2018-03-17T05:35:02.365Z,82.73
2018-03-17T05:37:30.847Z,83.27
2018-03-17T05:39:59.225Z,82.15
2018-03-17T05:42:27.969Z,82.78
2018-03-17T05:44:56.362Z,82.73
2018-03-17T05:47:25.058Z,81.95
2018-03-17T05:49:53.546Z,81.15
2018-03-17T05:52:22.981Z,81.50
2018-03-17T05:54:51.372Z,81.02
2018-03-17T05:57:19.880Z,81.00
2018-03-17T05:59:48.252Z,80.76
2018-03-17T06:02:16.604Z,80.46
2018-03-17T06:04:44.930Z,79.92
2018-03-17T06:07:13.526Z,79.91
2018-03-17T06:09:42.104Z,80.26
2018-03-17T06:12:10.525Z,79.66
2018-03-17T06:14:38.909Z,79.61
2018-03-17T06:17:07.249Z,78.77
2018-03-17T06:19:36.433Z,78.69
2018-03-17T06:22:05.599Z,78.07
2018-03-17T06:24:33.948Z,77.76
2018-03-17T06:27:03.090Z,78.04
2018-03-17T06:29:31.422Z,77.73
2018-03-17T06:32:00.540Z,77.41
2018-03-17T06:34:28.864Z,77.31
2018-03-17T06:36:57.240Z,77.52
2018-03-17T06:39:25.573Z,77.14
2018-03-17T06:41:53.930Z,76.66
2018-03-17T06:44:23.008Z,77.31
2018-03-17T06:46:52.171Z,77.14
2018-03-17T06:49:20.503Z,76.35
2018-03-17T06:51:49.593Z,76.99
2018-03-17T06:54:17.949Z,76.72
2018-03-17T06:56:46.309Z,76.80
2018-03-17T06:59:14.638Z,76.80
2018-03-17T07:01:43.015Z,76.65
2018-03-17T07:04:11.343Z,76.71
2018-03-17T07:06:39.671Z,76.78
2018-03-17T07:09:08.016Z,76.08
2018-03-17T07:11:36.390Z,76.99
2018-03-17T07:14:04.701Z,76.64
2018-03-17T07:16:33.049Z,75.35
2018-03-17T07:19:01.396Z,75.35
2018-03-17T07:21:29.729Z,75.28
2018-03-17T07:23:58.082Z,75.35
2018-03-17T07:26:27.177Z,74.75
2018-03-17T07:28:55.561Z,74.35
2018-03-17T07:31:24.641Z,73.73
2018-03-17T07:33:52.992Z,73.72
2018-03-17T07:36:21.345Z,72.99
2018-03-17T07:38:49.679Z,72.54
2018-03-17T07:41:18.034Z,72.01
2018-03-17T07:43:46.425Z,71.38
2018-03-17T07:46:14.763Z,69.84
2018-03-17T07:48:43.098Z,70.38
2018-03-17T07:51:12.253Z,69.81
2018-03-17T07:53:40.614Z,69.28
2018-03-17T07:56:10.100Z,69.38
2018-03-17T07:58:38.468Z,69.22
2018-03-17T08:01:06.809Z,69.03
2018-03-17T08:03:35.168Z,68.69
2018-03-17T08:06:03.536Z,68.56
2018-03-17T08:08:31.855Z,68.25
2018-03-17T08:11:00.601Z,67.97
2018-03-17T08:13:28.969Z,65.02
2018-03-17T08:15:58.483Z,66.96
2018-03-17T08:18:26.898Z,65.15
2018-03-17T08:20:55.253Z,65.37
2018-03-17T08:23:23.581Z,65.42
2018-03-17T08:25:52.713Z,64.55
2018-03-17T08:28:21.034Z,63.82
2018-03-17T08:30:49.411Z,64.52
2018-03-17T08:33:17.738Z,63.38
2018-03-17T08:35:46.851Z,63.36
2018-03-17T08:38:15.598Z,64.40
2018-03-17T08:40:44.734Z,63.93
2018-03-17T08:43:13.482Z,63.23
2018-03-17T08:45:41.825Z,62.54
2018-03-17T08:48:10.157Z,62.40
2018-03-17T08:50:38.505Z,60.95
2018-03-17T08:53:07.652Z,60.16
2018-03-17T08:55:35.974Z,60.92
2018-03-17T08:58:05.094Z,61.64
2018-03-17T09:00:33.417Z,60.90
2018-03-17T09:03:01.773Z,61.16
2018-03-17T09:05:30.098Z,59.70
2018-03-17T09:07:59.226Z,60.45
2018-03-17T09:10:27.544Z,61.04
2018-03-17T09:12:55.873Z,61.46
2018-03-17T09:15:24.213Z,59.76
2018-03-17T09:17:53.289Z,59.88
2018-03-17T09:20:21.660Z,59.62
2018-03-17T09:22:49.981Z,59.01
2018-03-17T09:25:29.037Z,58.82
2018-03-17T09:27:58.339Z,58.79
2018-03-17T09:30:26.890Z,58.04
2018-03-17T09:32:56.391Z,59.31
2018-03-17T09:35:25.537Z,58.34
2018-03-17T09:37:53.873Z,56.81
2018-03-17T09:40:22.608Z,57.53
2018-03-17T09:42:50.986Z,56.73
2018-03-17T09:45:20.108Z,55.09
2018-03-17T09:47:49.224Z,55.14
2018-03-17T09:50:18.443Z,57.65
2018-03-17T09:52:46.857Z,56.75
2018-03-17T09:55:15.221Z,56.15
2018-03-17T09:57:43.661Z,56.30
2018-03-17T10:00:12.348Z,56.71
2018-03-17T10:02:41.487Z,56.60
2018-03-17T10:05:09.967Z,55.83
2018-03-17T10:07:38.338Z,56.07
2018-03-17T10:10:06.691Z,54.59
2018-03-17T10:12:35.060Z,53.82
2018-03-17T10:15:03.410Z,55.12
2018-03-17T10:17:31.797Z,54.66
2018-03-17T10:20:00.924Z,53.54
2018-03-17T10:22:29.247Z,54.83
2018-03-17T10:24:57.624Z,53.98
2018-03-17T10:27:25.946Z,54.46
2018-03-17T10:29:54.413Z,51.68
2018-03-17T10:32:23.532Z,51.34
2018-03-17T10:34:51.906Z,53.38
2018-03-17T10:37:20.269Z,51.67
2018-03-17T10:39:49.519Z,52.14
2018-03-17T10:42:17.996Z,53.44
2018-03-17T10:44:46.421Z,51.76
2018-03-17T10:47:16.119Z,52.97
2018-03-17T10:49:46.266Z,52.97
2018-03-17T10:52:14.636Z,53.27
2018-03-17T10:54:44.688Z,52.94
2018-03-17T10:57:13.500Z,52.42
2018-03-17T10:59:41.953Z,52.21
2018-03-17T11:02:10.279Z,53.44
2018-03-17T11:04:38.691Z,53.63
2018-03-17T11:07:07.090Z,54.22
2018-03-17T11:09:37.317Z,54.42
2018-03-17T11:12:05.715Z,55.98
2018-03-17T11:14:34.160Z,55.34
2018-03-17T11:17:08.508Z,53.02
2018-03-17T11:22:11.572Z,56.11
2018-03-17T11:24:41.218Z,56.34
2018-03-17T11:27:09.581Z,56.77
2018-03-17T11:29:37.958Z,59.44
2018-03-17T11:32:07.053Z,57.73
2018-03-17T11:34:35.420Z,58.33
2018-03-17T11:37:03.758Z,57.87
2018-03-17T11:39:33.731Z,58.81
2018-03-17T11:42:02.169Z,58.78
2018-03-17T11:44:31.320Z,57.67
2018-03-17T11:46:59.672Z,56.97
2018-03-17T11:49:28.058Z,56.93
2018-03-17T11:51:56.393Z,56.93
2018-03-17T11:54:26.278Z,55.79
2018-03-17T11:56:54.675Z,54.96
2018-03-17T11:59:22.995Z,55.41
2018-03-17T12:01:52.126Z,56.58
2018-03-17T12:04:20.464Z,54.82
2018-03-17T12:06:48.859Z,56.52
2018-03-17T12:09:17.262Z,55.56
2018-03-17T12:11:45.614Z,55.02
2018-03-17T12:14:14.322Z,55.39
2018-03-17T12:16:43.052Z,55.08
2018-03-17T12:19:11.461Z,56.45
2018-03-17T12:21:39.774Z,57.20
2018-03-17T12:24:08.436Z,55.92
2018-03-17T12:26:36.896Z,54.85
2018-03-17T12:29:05.356Z,53.84
2018-03-17T12:31:33.816Z,55.96
2018-03-17T12:34:03.064Z,54.60
2018-03-17T12:36:32.753Z,54.09
2018-03-17T12:39:01.211Z,53.22
2018-03-17T12:41:31.130Z,54.67
2018-03-17T12:43:59.673Z,54.56
2018-03-17T12:46:28.084Z,54.93
2018-03-17T12:48:57.195Z,55.21
2018-03-17T12:51:26.891Z,52.12
2018-03-17T12:53:56.097Z,53.15
2018-03-17T12:56:24.453Z,51.74
2018-03-17T12:58:55.241Z,50.99
2018-03-17T13:01:24.953Z,50.80
2018-03-17T13:03:53.362Z,52.71
2018-03-17T13:06:22.503Z,53.87
2018-03-17T13:08:50.926Z,52.85
2018-03-17T13:11:19.260Z,54.56
2018-03-17T13:13:47.601Z,52.97
2018-03-17T13:16:15.979Z,52.89
2018-03-17T13:18:44.335Z,53.36
2018-03-17T13:21:12.674Z,54.52
2018-03-17T13:23:41.175Z,54.83
2018-03-17T13:26:10.868Z,54.58
2018-03-17T13:28:39.211Z,54.16
2018-03-17T13:31:08.294Z,53.34
2018-03-17T13:33:36.842Z,53.17
2018-03-17T13:36:22.900Z,52.36
2018-03-17T13:38:51.266Z,52.05
2018-03-17T13:41:21.131Z,51.55
2018-03-17T13:43:58.498Z,51.87
2018-03-17T13:46:26.870Z,50.99
2018-03-17T13:48:55.220Z,51.87
2018-03-17T13:51:24.557Z,52.25
2018-03-17T13:53:54.082Z,53.88
2018-03-17T13:56:23.098Z,55.28
2018-03-17T13:58:51.504Z,55.53
2018-03-17T14:01:20.697Z,54.52
2018-03-17T14:03:49.812Z,53.21
2018-03-17T14:06:18.196Z,53.90
2018-03-17T14:08:46.647Z,54.26
2018-03-17T14:11:16.286Z,54.00
2018-03-17T14:13:45.411Z,54.36
2018-03-17T14:16:14.296Z,54.54
2018-03-17T14:18:43.912Z,55.18
2018-03-17T14:21:12.406Z,53.49
2018-03-17T14:23:40.839Z,54.55
2018-03-17T14:26:10.333Z,54.36
2018-03-17T14:28:39.876Z,54.07
2018-03-17T14:31:08.309Z,54.70
2018-03-17T14:33:36.785Z,54.57
2018-03-17T14:36:06.493Z,55.37
2018-03-17T14:38:35.678Z,56.10
2018-03-17T14:41:07.532Z,57.09
2018-03-17T14:43:35.912Z,56.45
2018-03-17T14:46:05.395Z,56.69
2018-03-17T14:48:33.815Z,58.15
2018-03-17T14:51:02.190Z,58.75
2018-03-17T14:53:32.889Z,58.64
2018-03-17T14:56:05.535Z,58.99
2018-03-17T14:58:34.825Z,57.94
2018-03-17T15:01:04.464Z,57.33
2018-03-17T15:03:32.806Z,57.96
2018-03-17T15:06:21.407Z,57.20
2018-03-17T15:08:49.862Z,57.06
2018-03-17T15:11:18.363Z,56.45
2018-03-17T15:13:46.880Z,56.12
2018-03-17T15:16:19.253Z,56.76
2018-03-17T15:18:47.955Z,57.36
2018-03-17T15:21:16.368Z,56.98
2018-03-17T15:23:44.746Z,57.27
2018-03-17T15:26:13.092Z,57.87
2018-03-17T15:28:41.511Z,57.53
2018-03-17T15:31:14.397Z,57.39
2018-03-17T15:33:43.672Z,57.85
2018-03-17T15:36:15.078Z,58.14
2018-03-17T15:38:43.494Z,57.64
2018-03-17T15:41:11.961Z,57.50
2018-03-17T15:43:41.453Z,57.83
2018-03-17T15:46:09.853Z,57.78
2018-03-17T15:48:38.963Z,57.91
2018-03-17T15:51:08.321Z,58.37
2018-03-17T15:53:37.088Z,58.34
2018-03-17T15:56:05.593Z,58.27
2018-03-17T15:58:34.877Z,58.20
2018-03-17T16:01:03.269Z,58.04
2018-03-17T16:03:32.371Z,57.46
2018-03-17T16:06:00.747Z,57.02
2018-03-17T16:08:29.092Z,57.46
2018-03-17T16:10:57.445Z,56.77
2018-03-17T16:13:25.802Z,56.46
2018-03-17T16:15:54.143Z,56.51
2018-03-17T16:18:22.509Z,57.14
2018-03-17T16:20:50.849Z,57.42
2018-03-17T16:23:19.213Z,57.46
2018-03-17T16:25:47.775Z,57.37
2018-03-17T16:28:16.173Z,57.49
2018-03-17T16:30:44.537Z,57.34
2018-03-17T16:33:12.877Z,57.72
2018-03-17T16:35:42.356Z,57.90
2018-03-17T16:38:10.723Z,58.29
2018-03-17T16:40:39.428Z,58.87
2018-03-17T16:43:07.782Z,58.48
2018-03-17T16:45:36.218Z,59.01
2018-03-17T16:48:04.634Z,58.89
2018-03-17T16:50:33.265Z,59.47
2018-03-17T16:53:01.765Z,58.92
2018-03-17T16:55:30.909Z,59.41
2018-03-17T16:57:59.297Z,59.22
2018-03-17T17:00:30.062Z,59.36
2018-03-17T17:02:58.531Z,59.54
2018-03-17T17:05:27.305Z,58.76
2018-03-17T17:07:55.661Z,58.77
2018-03-17T17:10:25.927Z,57.54
2018-03-17T17:13:00.883Z,57.44
2018-03-17T17:15:33.921Z,57.92
2018-03-17T17:18:02.389Z,57.52
2018-03-17T17:20:31.101Z,57.17
2018-03-17T17:22:59.568Z,57.36
2018-03-17T17:25:28.064Z,56.83
2018-03-17T17:27:56.784Z,57.04
2018-03-17T17:30:25.409Z,56.83
2018-03-17T17:32:53.771Z,57.07
2018-03-17T17:35:23.559Z,56.27
2018-03-17T17:37:51.995Z,56.75
2018-03-17T17:40:20.385Z,56.67
2018-03-17T17:42:49.473Z,56.46
2018-03-17T17:45:17.985Z,56.31
2018-03-17T17:47:47.159Z,55.91
2018-03-17T17:50:16.721Z,55.55
2018-03-17T17:52:45.110Z,55.14
2018-03-17T17:55:14.741Z,54.67
2018-03-17T17:57:43.359Z,54.46
2018-03-17T18:00:12.600Z,54.90
2018-03-17T18:02:41.257Z,54.38
2018-03-17T18:05:11.169Z,54.36
2018-03-17T18:07:39.535Z,54.14
2018-03-17T18:10:08.847Z,54.03
2018-03-17T18:12:37.197Z,54.01
2018-03-17T18:15:06.945Z,53.62
2018-03-17T18:17:35.404Z,54.34
2018-03-17T18:20:04.577Z,54.69
2018-03-17T18:22:32.961Z,54.82
2018-03-17T18:25:01.291Z,54.59
2018-03-17T18:27:29.812Z,54.75
2018-03-17T18:30:00.063Z,54.71
2018-03-17T18:32:28.541Z,53.77
2018-03-17T18:34:57.149Z,53.82
2018-03-17T18:37:25.580Z,53.46
2018-03-17T18:39:54.201Z,53.47
2018-03-17T18:42:23.373Z,53.12
2018-03-17T18:44:51.761Z,52.95
2018-03-17T18:47:20.582Z,52.54
2018-03-17T18:49:49.385Z,51.64
2018-03-17T18:52:17.741Z,52.19
2018-03-17T18:54:46.220Z,52.44
2018-03-17T18:57:14.935Z,52.22
2018-03-17T18:59:43.468Z,51.79
2018-03-17T19:02:12.661Z,51.71
2018-03-17T19:04:41.815Z,52.12
2018-03-17T19:07:10.239Z,51.79
2018-03-17T19:09:40.032Z,51.86
2018-03-17T19:12:08.512Z,51.84
2018-03-17T19:14:37.048Z,51.93
2018-03-17T19:17:05.436Z,51.83
2018-03-17T19:19:33.766Z,51.91
2018-03-17T19:22:04.419Z,51.29
2018-03-17T19:24:33.692Z,50.58
2018-03-17T19:27:02.850Z,50.45
2018-03-17T19:29:32.198Z,50.89
2018-03-17T19:32:01.565Z,50.78
2018-03-17T19:34:29.952Z,50.79
2018-03-17T19:36:58.380Z,51.31
2018-03-17T19:39:26.764Z,51.40
2018-03-17T19:41:55.866Z,50.67
2018-03-17T19:44:25.963Z,50.39
2018-03-17T19:46:54.652Z,50.90
2018-03-17T19:49:23.020Z,50.94
2018-03-17T19:51:52.627Z,50.41
2018-03-17T19:54:21.722Z,50.30
2018-03-17T19:56:51.230Z,49.77
2018-03-17T19:59:19.575Z,50.23
2018-03-17T20:01:47.923Z,49.89
2018-03-17T20:04:16.256Z,50.33
2018-03-17T20:06:45.368Z,49.94
2018-03-17T20:09:13.752Z,50.05
2018-03-17T20:11:42.474Z,49.91
2018-03-17T20:14:12.047Z,49.92
2018-03-17T20:16:40.408Z,50.10
2018-03-17T20:19:10.554Z,50.18
2018-03-17T20:21:38.920Z,50.02
2018-03-17T20:24:07.905Z,50.13
2018-03-17T20:26:36.301Z,49.51
2018-03-17T20:29:04.654Z,50.73
2018-03-17T20:31:33.099Z,50.30
2018-03-17T20:34:01.435Z,49.97
2018-03-17T20:36:29.812Z,49.83
2018-03-17T20:38:58.155Z,50.42
2018-03-17T20:41:27.869Z,50.31
2018-03-17T20:43:56.336Z,50.11
2018-03-17T20:46:25.432Z,50.41
2018-03-17T20:48:55.023Z,50.20
2018-03-17T20:51:23.371Z,49.59
2018-03-17T20:53:51.797Z,49.94
2018-03-17T20:56:20.903Z,49.57
2018-03-17T20:58:50.042Z,49.89
2018-03-17T21:01:18.412Z,49.78
2018-03-17T21:03:47.546Z,49.51
2018-03-17T21:06:15.893Z,49.85
2018-03-17T21:08:44.355Z,50.48
2018-03-17T21:11:12.715Z,49.34
2018-03-17T21:13:41.095Z,49.63
2018-03-17T21:16:09.561Z,49.10
2018-03-17T21:18:38.663Z,49.57
2018-03-17T21:21:07.791Z,48.92
2018-03-17T21:23:36.111Z,48.77
2018-03-17T21:26:04.486Z,48.45
2018-03-17T21:28:32.848Z,48.56
2018-03-17T21:31:01.216Z,47.72
2018-03-17T21:33:29.573Z,47.85
2018-03-17T21:35:58.672Z,47.64
2018-03-17T21:38:27.106Z,47.18
2018-03-17T21:40:55.489Z,47.78
2018-03-17T21:43:23.818Z,48.77
2018-03-17T21:45:52.207Z,49.00
2018-03-17T21:48:20.528Z,48.97
2018-03-17T21:50:49.303Z,49.16
2018-03-17T21:53:18.418Z,48.68
2018-03-17T21:55:47.538Z,48.66
2018-03-17T21:58:17.025Z,48.81
2018-03-17T22:00:45.407Z,49.21
2018-03-17T22:03:13.734Z,48.40
2018-03-17T22:05:42.096Z,48.07
2018-03-17T22:08:10.422Z,47.86
2018-03-17T22:10:39.188Z,47.93
2018-03-17T22:13:07.526Z,48.07
2018-03-17T22:15:35.906Z,47.91
2018-03-17T22:18:04.342Z,48.40
2018-03-17T22:20:33.448Z,48.68
2018-03-17T22:23:01.799Z,48.33
2018-03-17T22:25:30.171Z,47.98
2018-03-17T22:27:59.566Z,48.80
2018-03-17T22:30:28.086Z,48.61
2018-03-17T22:32:57.157Z,48.71
2018-03-17T22:35:26.302Z,48.65
2018-03-17T22:37:54.650Z,48.40
2018-03-17T22:40:23.026Z,48.72
2018-03-17T22:42:52.927Z,49.06
2018-03-17T22:45:22.048Z,49.26
2018-03-17T22:47:50.386Z,48.88
2018-03-17T22:50:18.777Z,48.87
2018-03-17T22:52:47.166Z,49.39
2018-03-17T22:55:16.300Z,49.07
2018-03-17T22:57:44.640Z,48.77
2018-03-17T23:00:13.784Z,49.18
2018-03-17T23:02:42.124Z,48.75
2018-03-17T23:05:11.305Z,48.86
2018-03-17T23:07:40.395Z,48.43
2018-03-17T23:10:08.741Z,49.23
2018-03-17T23:12:37.125Z,49.11
2018-03-17T23:15:05.509Z,49.25
2018-03-17T23:17:33.849Z,48.84
2018-03-17T23:20:02.246Z,47.64
2018-03-17T23:22:30.576Z,47.80
2018-03-17T23:24:59.715Z,47.90
2018-03-17T23:27:28.424Z,48.42
2018-03-17T23:29:57.030Z,48.42
2018-03-17T23:32:26.196Z,48.65
2018-03-17T23:34:54.544Z,48.40
2018-03-17T23:37:22.870Z,47.34
2018-03-17T23:39:51.201Z,47.28
2018-03-17T23:42:19.569Z,47.46
2018-03-17T23:44:47.920Z,47.93
2018-03-17T23:47:17.009Z,47.59
2018-03-17T23:49:46.137Z,47.55
2018-03-17T23:52:14.502Z,48.23
2018-03-17T23:54:42.885Z,48.53
2018-03-17T23:57:11.236Z,48.81
2018-03-17T23:59:39.616Z,48.20
